sensor_id;sensor_type;location;lat;lon;timestamp;temperature;humidity
14397;DHT22;50653;47.810;13.022;2023-02-01T00:00:25;4.90;89.90
14397;DHT22;50653;47.810;13.022;2023-02-01T00:02:50;4.90;88.70
14397;DHT22;50653;47.810;13.022;2023-02-01T00:05:16;5.00;90.00
14397;DHT22;50653;47.810;13.022;2023-02-01T00:07:41;4.90;90.00
14397;DHT22;50653;47.810;13.022;2023-02-01T00:10:08;5.00;89.60
14397;DHT22;50653;47.810;13.022;2023-02-01T00:12:34;4.90;90.20
14397;DHT22;50653;47.810;13.022;2023-02-01T00:14:59;4.80;87.90
14397;DHT22;50653;47.810;13.022;2023-02-01T00:17:25;4.80;90.00
14397;DHT22;50653;47.810;13.022;2023-02-01T00:19:51;4.80;88.90
14397;DHT22;50653;47.810;13.022;2023-02-01T00:22:16;4.70;88.90
14397;DHT22;50653;47.810;13.022;2023-02-01T00:24:42;4.70;88.20
14397;DHT22;50653;47.810;13.022;2023-02-01T00:27:07;4.80;87.90
14397;DHT22;50653;47.810;13.022;2023-02-01T00:29:33;4.70;86.80
14397;DHT22;50653;47.810;13.022;2023-02-01T00:31:59;4.80;84.80
14397;DHT22;50653;47.810;13.022;2023-02-01T00:34:24;4.80;84.60
14397;DHT22;50653;47.810;13.022;2023-02-01T00:36:50;4.90;85.30
14397;DHT22;50653;47.810;13.022;2023-02-01T00:39:16;4.90;85.20
14397;DHT22;50653;47.810;13.022;2023-02-01T00:41:42;4.80;84.40
14397;DHT22;50653;47.810;13.022;2023-02-01T00:44:08;4.80;85.20
14397;DHT22;50653;47.810;13.022;2023-02-01T00:46:33;4.90;85.70
14397;DHT22;50653;47.810;13.022;2023-02-01T00:49:00;4.90;86.20
14397;DHT22;50653;47.810;13.022;2023-02-01T00:51:28;4.90;86.20
14397;DHT22;50653;47.810;13.022;2023-02-01T00:53:55;4.90;87.20
14397;DHT22;50653;47.810;13.022;2023-02-01T00:56:21;4.90;88.60
14397;DHT22;50653;47.810;13.022;2023-02-01T00:58:46;4.90;89.60
14397;DHT22;50653;47.810;13.022;2023-02-01T01:01:23;4.90;89.40
14397;DHT22;50653;47.810;13.022;2023-02-01T01:03:51;4.90;90.10
14397;DHT22;50653;47.810;13.022;2023-02-01T01:06:21;4.90;90.40
14397;DHT22;50653;47.810;13.022;2023-02-01T01:08:49;4.90;90.50
14397;DHT22;50653;47.810;13.022;2023-02-01T01:11:19;4.90;91.50
14397;DHT22;50653;47.810;13.022;2023-02-01T01:13:46;4.70;92.20
14397;DHT22;50653;47.810;13.022;2023-02-01T01:16:13;4.60;93.30
14397;DHT22;50653;47.810;13.022;2023-02-01T01:18:39;4.60;94.10
14397;DHT22;50653;47.810;13.022;2023-02-01T01:21:06;4.60;94.60
14397;DHT22;50653;47.810;13.022;2023-02-01T01:23:32;4.50;95.00
14397;DHT22;50653;47.810;13.022;2023-02-01T01:25:58;4.60;95.30
14397;DHT22;50653;47.810;13.022;2023-02-01T01:28:24;4.50;95.40
14397;DHT22;50653;47.810;13.022;2023-02-01T01:30:49;4.60;95.40
14397;DHT22;50653;47.810;13.022;2023-02-01T01:33:15;4.60;95.80
14397;DHT22;50653;47.810;13.022;2023-02-01T01:35:41;4.60;96.10
14397;DHT22;50653;47.810;13.022;2023-02-01T01:38:09;4.60;96.30
14397;DHT22;50653;47.810;13.022;2023-02-01T01:40:35;4.50;96.70
14397;DHT22;50653;47.810;13.022;2023-02-01T01:43:01;4.50;97.00
14397;DHT22;50653;47.810;13.022;2023-02-01T01:45:32;4.60;97.00
14397;DHT22;50653;47.810;13.022;2023-02-01T01:48:23;4.60;97.00
14397;DHT22;50653;47.810;13.022;2023-02-01T01:53:24;4.60;97.00
14397;DHT22;50653;47.810;13.022;2023-02-01T01:55:52;4.50;97.30
14397;DHT22;50653;47.810;13.022;2023-02-01T01:58:22;4.50;97.30
14397;DHT22;50653;47.810;13.022;2023-02-01T02:00:49;4.60;97.20
14397;DHT22;50653;47.810;13.022;2023-02-01T02:03:23;4.60;97.40
14397;DHT22;50653;47.810;13.022;2023-02-01T02:05:53;4.60;97.30
14397;DHT22;50653;47.810;13.022;2023-02-01T02:08:20;4.70;97.10
14397;DHT22;50653;47.810;13.022;2023-02-01T02:10:47;4.70;96.80
14397;DHT22;50653;47.810;13.022;2023-02-01T02:13:32;4.70;97.10
14397;DHT22;50653;47.810;13.022;2023-02-01T02:16:08;4.70;97.30
14397;DHT22;50653;47.810;13.022;2023-02-01T02:19:00;4.70;97.30
14397;DHT22;50653;47.810;13.022;2023-02-01T02:27:17;4.70;96.60
14397;DHT22;50653;47.810;13.022;2023-02-01T02:40:53;4.70;97.20
14397;DHT22;50653;47.810;13.022;2023-02-01T02:43:23;4.70;97.70
14397;DHT22;50653;47.810;13.022;2023-02-01T02:46:37;4.60;98.20
14397;DHT22;50653;47.810;13.022;2023-02-01T02:49:39;4.60;98.70
14397;DHT22;50653;47.810;13.022;2023-02-01T02:52:13;4.60;98.80
14397;DHT22;50653;47.810;13.022;2023-02-01T02:55:00;4.60;99.20
14397;DHT22;50653;47.810;13.022;2023-02-01T02:57:39;4.60;99.80
14397;DHT22;50653;47.810;13.022;2023-02-01T03:00:28;4.60;99.70
14397;DHT22;50653;47.810;13.022;2023-02-01T03:03:13;4.50;99.90
14397;DHT22;50653;47.810;13.022;2023-02-01T03:05:58;4.50;99.90
14397;DHT22;50653;47.810;13.022;2023-02-01T03:08:28;4.50;99.90
14397;DHT22;50653;47.810;13.022;2023-02-01T03:21:07;4.30;99.90
14397;DHT22;50653;47.810;13.022;2023-02-01T03:23:36;4.30;99.90
14397;DHT22;50653;47.810;13.022;2023-02-01T03:26:07;4.30;99.90
14397;DHT22;50653;47.810;13.022;2023-02-01T03:28:35;4.20;99.90
14397;DHT22;50653;47.810;13.022;2023-02-01T03:31:02;4.10;99.90
14397;DHT22;50653;47.810;13.022;2023-02-01T03:33:29;4.10;99.90
14397;DHT22;50653;47.810;13.022;2023-02-01T03:36:15;4.20;99.90
14397;DHT22;50653;47.810;13.022;2023-02-01T03:41:28;4.20;99.90
14397;DHT22;50653;47.810;13.022;2023-02-01T03:44:13;4.10;99.90
14397;DHT22;50653;47.810;13.022;2023-02-01T03:46:49;4.10;99.90
14397;DHT22;50653;47.810;13.022;2023-02-01T03:49:28;4.20;99.90
14397;DHT22;50653;47.810;13.022;2023-02-01T03:51:57;4.10;99.90
14397;DHT22;50653;47.810;13.022;2023-02-01T03:54:24;4.10;99.90
14397;DHT22;50653;47.810;13.022;2023-02-01T03:56:52;4.20;99.90
14397;DHT22;50653;47.810;13.022;2023-02-01T03:59:19;4.20;99.90
14397;DHT22;50653;47.810;13.022;2023-02-01T04:01:45;4.10;99.90
14397;DHT22;50653;47.810;13.022;2023-02-01T04:04:11;4.10;99.90
14397;DHT22;50653;47.810;13.022;2023-02-01T04:06:47;4.10;99.90
14397;DHT22;50653;47.810;13.022;2023-02-01T04:09:14;4.10;99.90
14397;DHT22;50653;47.810;13.022;2023-02-01T04:11:39;4.10;99.90
14397;DHT22;50653;47.810;13.022;2023-02-01T04:14:05;4.00;99.90
14397;DHT22;50653;47.810;13.022;2023-02-01T04:16:31;4.10;99.90
14397;DHT22;50653;47.810;13.022;2023-02-01T04:18:57;4.10;99.90
14397;DHT22;50653;47.810;13.022;2023-02-01T04:21:25;4.10;99.90
14397;DHT22;50653;47.810;13.022;2023-02-01T04:23:50;4.00;99.90
14397;DHT22;50653;47.810;13.022;2023-02-01T04:26:16;4.10;99.90
14397;DHT22;50653;47.810;13.022;2023-02-01T04:28:42;4.10;99.90
14397;DHT22;50653;47.810;13.022;2023-02-01T04:31:08;4.10;99.90
14397;DHT22;50653;47.810;13.022;2023-02-01T04:33:34;4.10;99.90
14397;DHT22;50653;47.810;13.022;2023-02-01T04:35:59;4.10;99.90
14397;DHT22;50653;47.810;13.022;2023-02-01T04:38:25;4.10;99.90
14397;DHT22;50653;47.810;13.022;2023-02-01T04:40:52;4.10;99.90
14397;DHT22;50653;47.810;13.022;2023-02-01T04:43:17;4.10;99.90
14397;DHT22;50653;47.810;13.022;2023-02-01T04:45:48;4.10;99.90
14397;DHT22;50653;47.810;13.022;2023-02-01T04:48:14;4.10;99.90
14397;DHT22;50653;47.810;13.022;2023-02-01T04:50:40;4.10;99.90
14397;DHT22;50653;47.810;13.022;2023-02-01T04:53:06;4.10;99.90
14397;DHT22;50653;47.810;13.022;2023-02-01T04:55:31;3.90;99.90
14397;DHT22;50653;47.810;13.022;2023-02-01T04:57:57;3.90;99.90
14397;DHT22;50653;47.810;13.022;2023-02-01T05:00:23;3.90;99.90
14397;DHT22;50653;47.810;13.022;2023-02-01T05:02:48;3.90;99.90
14397;DHT22;50653;47.810;13.022;2023-02-01T05:05:14;4.00;99.90
14397;DHT22;50653;47.810;13.022;2023-02-01T05:07:40;3.90;99.90
14397;DHT22;50653;47.810;13.022;2023-02-01T05:10:06;3.90;99.90
14397;DHT22;50653;47.810;13.022;2023-02-01T05:12:31;3.80;99.90
14397;DHT22;50653;47.810;13.022;2023-02-01T05:15:16;3.90;99.90
14397;DHT22;50653;47.810;13.022;2023-02-01T05:17:41;4.00;99.90
14397;DHT22;50653;47.810;13.022;2023-02-01T05:20:08;3.90;99.90
14397;DHT22;50653;47.810;13.022;2023-02-01T05:22:34;3.90;99.90
14397;DHT22;50653;47.810;13.022;2023-02-01T05:24:59;3.80;99.90
14397;DHT22;50653;47.810;13.022;2023-02-01T05:27:25;3.90;99.90
14397;DHT22;50653;47.810;13.022;2023-02-01T05:29:51;3.80;99.90
14397;DHT22;50653;47.810;13.022;2023-02-01T05:32:16;3.90;99.90
14397;DHT22;50653;47.810;13.022;2023-02-01T05:34:42;3.90;99.90
14397;DHT22;50653;47.810;13.022;2023-02-01T05:37:07;3.90;99.90
14397;DHT22;50653;47.810;13.022;2023-02-01T05:39:33;3.90;99.90
14397;DHT22;50653;47.810;13.022;2023-02-01T05:41:59;3.80;99.90
14397;DHT22;50653;47.810;13.022;2023-02-01T05:44:25;3.90;99.90
14397;DHT22;50653;47.810;13.022;2023-02-01T05:46:51;3.90;99.90
14397;DHT22;50653;47.810;13.022;2023-02-01T05:49:17;3.90;99.90
14397;DHT22;50653;47.810;13.022;2023-02-01T05:51:43;3.90;99.90
14397;DHT22;50653;47.810;13.022;2023-02-01T05:54:09;4.00;99.90
14397;DHT22;50653;47.810;13.022;2023-02-01T05:56:35;4.00;99.90
14397;DHT22;50653;47.810;13.022;2023-02-01T05:59:01;4.10;99.90
14397;DHT22;50653;47.810;13.022;2023-02-01T06:01:26;4.10;99.90
14397;DHT22;50653;47.810;13.022;2023-02-01T06:03:52;4.10;99.90
14397;DHT22;50653;47.810;13.022;2023-02-01T06:06:17;4.20;99.90
14397;DHT22;50653;47.810;13.022;2023-02-01T06:08:45;4.20;99.90
14397;DHT22;50653;47.810;13.022;2023-02-01T06:11:11;4.20;99.90
14397;DHT22;50653;47.810;13.022;2023-02-01T06:13:38;4.20;99.90
14397;DHT22;50653;47.810;13.022;2023-02-01T06:16:05;4.20;99.90
14397;DHT22;50653;47.810;13.022;2023-02-01T06:18:33;4.20;99.90
14397;DHT22;50653;47.810;13.022;2023-02-01T06:21:00;4.30;99.90
14397;DHT22;50653;47.810;13.022;2023-02-01T06:23:27;4.20;99.90
14397;DHT22;50653;47.810;13.022;2023-02-01T06:26:01;4.30;99.90
14397;DHT22;50653;47.810;13.022;2023-02-01T06:28:28;4.30;99.90
14397;DHT22;50653;47.810;13.022;2023-02-01T06:30:54;4.20;99.90
14397;DHT22;50653;47.810;13.022;2023-02-01T06:33:20;4.20;99.90
14397;DHT22;50653;47.810;13.022;2023-02-01T06:35:45;4.20;99.90
14397;DHT22;50653;47.810;13.022;2023-02-01T06:38:12;4.30;99.90
14397;DHT22;50653;47.810;13.022;2023-02-01T06:40:39;4.30;99.90
14397;DHT22;50653;47.810;13.022;2023-02-01T06:43:05;4.30;99.90
14397;DHT22;50653;47.810;13.022;2023-02-01T06:45:31;4.30;99.90
14397;DHT22;50653;47.810;13.022;2023-02-01T06:47:58;4.30;99.90
14397;DHT22;50653;47.810;13.022;2023-02-01T06:50:25;4.30;99.90
14397;DHT22;50653;47.810;13.022;2023-02-01T06:52:50;4.30;99.90
14397;DHT22;50653;47.810;13.022;2023-02-01T06:55:16;4.30;99.90
14397;DHT22;50653;47.810;13.022;2023-02-01T06:57:41;4.30;99.90
14397;DHT22;50653;47.810;13.022;2023-02-01T07:00:07;4.40;99.90
14397;DHT22;50653;47.810;13.022;2023-02-01T07:02:33;4.40;99.90
14397;DHT22;50653;47.810;13.022;2023-02-01T07:04:59;4.40;99.90
14397;DHT22;50653;47.810;13.022;2023-02-01T07:07:25;4.40;99.90
14397;DHT22;50653;47.810;13.022;2023-02-01T07:09:50;4.40;99.90
14397;DHT22;50653;47.810;13.022;2023-02-01T07:12:16;4.40;99.90
14397;DHT22;50653;47.810;13.022;2023-02-01T07:14:41;4.40;99.90
14397;DHT22;50653;47.810;13.022;2023-02-01T07:17:07;4.40;99.90
14397;DHT22;50653;47.810;13.022;2023-02-01T07:19:34;4.40;99.90
14397;DHT22;50653;47.810;13.022;2023-02-01T07:22:00;4.40;99.90
14397;DHT22;50653;47.810;13.022;2023-02-01T07:24:26;4.40;99.90
14397;DHT22;50653;47.810;13.022;2023-02-01T07:26:52;4.40;99.90
14397;DHT22;50653;47.810;13.022;2023-02-01T07:29:18;4.30;99.90
14397;DHT22;50653;47.810;13.022;2023-02-01T07:31:44;4.30;99.90
14397;DHT22;50653;47.810;13.022;2023-02-01T07:34:09;4.40;99.90
14397;DHT22;50653;47.810;13.022;2023-02-01T07:36:35;4.60;99.90
14397;DHT22;50653;47.810;13.022;2023-02-01T07:39:02;4.70;99.90
14397;DHT22;50653;47.810;13.022;2023-02-01T07:41:28;4.70;99.90
14397;DHT22;50653;47.810;13.022;2023-02-01T07:43:54;4.80;99.90
14397;DHT22;50653;47.810;13.022;2023-02-01T07:46:20;4.90;99.50
14397;DHT22;50653;47.810;13.022;2023-02-01T07:48:46;5.00;98.70
14397;DHT22;50653;47.810;13.022;2023-02-01T07:51:13;5.00;98.90
14397;DHT22;50653;47.810;13.022;2023-02-01T07:53:40;5.10;97.30
14397;DHT22;50653;47.810;13.022;2023-02-01T07:56:17;5.10;97.40
14397;DHT22;50653;47.810;13.022;2023-02-01T07:58:48;5.20;96.80
14397;DHT22;50653;47.810;13.022;2023-02-01T08:01:22;5.20;96.30
14397;DHT22;50653;47.810;13.022;2023-02-01T08:03:59;5.30;95.90
14397;DHT22;50653;47.810;13.022;2023-02-01T08:06:25;5.30;95.70
14397;DHT22;50653;47.810;13.022;2023-02-01T08:08:52;5.40;94.50
14397;DHT22;50653;47.810;13.022;2023-02-01T08:11:19;5.40;94.80
14397;DHT22;50653;47.810;13.022;2023-02-01T08:13:46;5.40;94.50
14397;DHT22;50653;47.810;13.022;2023-02-01T08:16:14;5.40;94.30
14397;DHT22;50653;47.810;13.022;2023-02-01T08:18:40;5.40;93.90
14397;DHT22;50653;47.810;13.022;2023-02-01T08:21:09;5.50;93.50
14397;DHT22;50653;47.810;13.022;2023-02-01T08:23:36;5.50;92.90
14397;DHT22;50653;47.810;13.022;2023-02-01T08:28:41;5.60;91.50
14397;DHT22;50653;47.810;13.022;2023-02-01T08:31:10;5.70;91.70
14397;DHT22;50653;47.810;13.022;2023-02-01T08:33:36;5.70;91.10
14397;DHT22;50653;47.810;13.022;2023-02-01T08:36:04;5.70;91.10
14397;DHT22;50653;47.810;13.022;2023-02-01T08:38:30;5.80;90.70
14397;DHT22;50653;47.810;13.022;2023-02-01T08:40:56;5.80;90.30
14397;DHT22;50653;47.810;13.022;2023-02-01T08:43:22;5.80;90.10
14397;DHT22;50653;47.810;13.022;2023-02-01T08:45:47;5.80;90.10
14397;DHT22;50653;47.810;13.022;2023-02-01T08:48:13;5.90;88.90
14397;DHT22;50653;47.810;13.022;2023-02-01T08:50:39;6.00;85.10
14397;DHT22;50653;47.810;13.022;2023-02-01T08:53:05;6.00;84.70
14397;DHT22;50653;47.810;13.022;2023-02-01T08:55:30;6.00;83.90
14397;DHT22;50653;47.810;13.022;2023-02-01T08:57:56;6.00;82.50
14397;DHT22;50653;47.810;13.022;2023-02-01T09:00:22;6.10;80.50
14397;DHT22;50653;47.810;13.022;2023-02-01T09:02:47;6.10;81.20
14397;DHT22;50653;47.810;13.022;2023-02-01T09:05:13;6.10;79.80
14397;DHT22;50653;47.810;13.022;2023-02-01T09:07:41;6.10;79.50
14397;DHT22;50653;47.810;13.022;2023-02-01T09:10:08;6.20;78.60
14397;DHT22;50653;47.810;13.022;2023-02-01T09:12:35;6.20;77.20
14397;DHT22;50653;47.810;13.022;2023-02-01T09:15:01;6.40;75.60
14397;DHT22;50653;47.810;13.022;2023-02-01T09:17:28;6.30;75.30
14397;DHT22;50653;47.810;13.022;2023-02-01T09:19:53;6.40;75.50
14397;DHT22;50653;47.810;13.022;2023-02-01T09:22:20;6.50;74.90
14397;DHT22;50653;47.810;13.022;2023-02-01T09:24:45;6.50;74.40
14397;DHT22;50653;47.810;13.022;2023-02-01T09:27:11;6.50;74.30
14397;DHT22;50653;47.810;13.022;2023-02-01T09:29:37;6.50;74.20
14397;DHT22;50653;47.810;13.022;2023-02-01T09:32:03;6.50;73.20
14397;DHT22;50653;47.810;13.022;2023-02-01T09:34:28;6.50;74.10
14397;DHT22;50653;47.810;13.022;2023-02-01T09:36:54;6.50;73.20
14397;DHT22;50653;47.810;13.022;2023-02-01T09:39:20;6.60;73.00
14397;DHT22;50653;47.810;13.022;2023-02-01T09:42:07;6.60;73.00
14397;DHT22;50653;47.810;13.022;2023-02-01T09:47:13;6.60;73.80
14397;DHT22;50653;47.810;13.022;2023-02-01T09:49:46;6.60;73.80
14397;DHT22;50653;47.810;13.022;2023-02-01T09:52:14;6.60;72.70
14397;DHT22;50653;47.810;13.022;2023-02-01T09:54:51;6.60;72.40
14397;DHT22;50653;47.810;13.022;2023-02-01T09:57:33;6.60;72.00
14397;DHT22;50653;47.810;13.022;2023-02-01T10:00:09;6.60;72.70
14397;DHT22;50653;47.810;13.022;2023-02-01T10:02:40;6.70;73.10
14397;DHT22;50653;47.810;13.022;2023-02-01T10:05:13;6.60;73.20
14397;DHT22;50653;47.810;13.022;2023-02-01T10:08:09;6.60;73.50
14397;DHT22;50653;47.810;13.022;2023-02-01T10:10:45;6.70;72.30
14397;DHT22;50653;47.810;13.022;2023-02-01T10:13:34;6.70;71.90
14397;DHT22;50653;47.810;13.022;2023-02-01T10:16:17;6.70;72.00
14397;DHT22;50653;47.810;13.022;2023-02-01T10:22:04;6.70;70.20
14397;DHT22;50653;47.810;13.022;2023-02-01T10:24:52;6.80;70.60
14397;DHT22;50653;47.810;13.022;2023-02-01T10:27:40;6.80;71.20
14397;DHT22;50653;47.810;13.022;2023-02-01T10:30:18;6.80;71.20
14397;DHT22;50653;47.810;13.022;2023-02-01T10:32:44;6.90;70.80
14397;DHT22;50653;47.810;13.022;2023-02-01T10:35:18;6.90;70.80
14397;DHT22;50653;47.810;13.022;2023-02-01T10:37:45;6.90;71.50
14397;DHT22;50653;47.810;13.022;2023-02-01T10:40:23;6.90;71.80
14397;DHT22;50653;47.810;13.022;2023-02-01T10:42:52;6.90;71.10
14397;DHT22;50653;47.810;13.022;2023-02-01T10:45:23;6.90;71.40
14397;DHT22;50653;47.810;13.022;2023-02-01T10:47:52;6.90;71.90
14397;DHT22;50653;47.810;13.022;2023-02-01T10:50:29;6.80;71.70
14397;DHT22;50653;47.810;13.022;2023-02-01T10:53:05;6.80;72.80
14397;DHT22;50653;47.810;13.022;2023-02-01T10:58:07;6.90;73.20
14397;DHT22;50653;47.810;13.022;2023-02-01T11:04:24;6.80;74.00
14397;DHT22;50653;47.810;13.022;2023-02-01T11:06:54;6.80;75.10
14397;DHT22;50653;47.810;13.022;2023-02-01T11:09:31;6.80;75.20
14397;DHT22;50653;47.810;13.022;2023-02-01T11:11:59;6.80;74.80
14397;DHT22;50653;47.810;13.022;2023-02-01T11:16:55;6.80;75.40
14397;DHT22;50653;47.810;13.022;2023-02-01T11:19:22;6.80;75.70
14397;DHT22;50653;47.810;13.022;2023-02-01T11:21:53;6.80;75.60
14397;DHT22;50653;47.810;13.022;2023-02-01T11:24:27;6.80;74.20
14397;DHT22;50653;47.810;13.022;2023-02-01T11:26:56;6.80;74.10
14397;DHT22;50653;47.810;13.022;2023-02-01T11:29:22;6.80;75.00
14397;DHT22;50653;47.810;13.022;2023-02-01T11:31:57;6.80;75.10
14397;DHT22;50653;47.810;13.022;2023-02-01T11:34:26;6.80;76.30
14397;DHT22;50653;47.810;13.022;2023-02-01T11:36:55;6.80;74.20
14397;DHT22;50653;47.810;13.022;2023-02-01T11:39:26;6.80;74.80
14397;DHT22;50653;47.810;13.022;2023-02-01T11:42:04;6.80;74.50
14397;DHT22;50653;47.810;13.022;2023-02-01T11:44:40;6.90;75.40
14397;DHT22;50653;47.810;13.022;2023-02-01T11:47:21;6.80;75.40
14397;DHT22;50653;47.810;13.022;2023-02-01T11:49:49;6.80;75.20
14397;DHT22;50653;47.810;13.022;2023-02-01T11:52:32;6.80;75.20
14397;DHT22;50653;47.810;13.022;2023-02-01T12:03:37;6.80;75.90
14397;DHT22;50653;47.810;13.022;2023-02-01T12:06:35;6.90;75.50
14397;DHT22;50653;47.810;13.022;2023-02-01T12:09:31;6.90;75.70
14397;DHT22;50653;47.810;13.022;2023-02-01T12:12:31;6.90;75.90
14397;DHT22;50653;47.810;13.022;2023-02-01T12:30:23;7.00;76.90
14397;DHT22;50653;47.810;13.022;2023-02-01T12:33:18;7.00;77.20
14397;DHT22;50653;47.810;13.022;2023-02-01T12:41:06;6.90;77.20
14397;DHT22;50653;47.810;13.022;2023-02-01T12:46:15;6.90;77.30
14397;DHT22;50653;47.810;13.022;2023-02-01T12:51:31;6.80;77.90
14397;DHT22;50653;47.810;13.022;2023-02-01T12:54:24;6.80;77.50
14397;DHT22;50653;47.810;13.022;2023-02-01T12:56:57;6.70;77.60
14397;DHT22;50653;47.810;13.022;2023-02-01T12:59:38;6.70;76.50
14397;DHT22;50653;47.810;13.022;2023-02-01T13:02:16;6.70;76.50
14397;DHT22;50653;47.810;13.022;2023-02-01T13:05:00;6.70;76.90
14397;DHT22;50653;47.810;13.022;2023-02-01T13:08:00;6.70;77.00
14397;DHT22;50653;47.810;13.022;2023-02-01T13:13:22;6.70;76.50
14397;DHT22;50653;47.810;13.022;2023-02-01T13:15:58;6.70;76.60
14397;DHT22;50653;47.810;13.022;2023-02-01T13:18:37;6.70;76.80
14397;DHT22;50653;47.810;13.022;2023-02-01T13:21:08;6.70;77.10
14397;DHT22;50653;47.810;13.022;2023-02-01T13:23:40;6.70;77.40
14397;DHT22;50653;47.810;13.022;2023-02-01T13:26:07;6.70;77.00
14397;DHT22;50653;47.810;13.022;2023-02-01T13:28:53;6.60;77.20
14397;DHT22;50653;47.810;13.022;2023-02-01T13:37:31;6.60;77.20
14397;DHT22;50653;47.810;13.022;2023-02-01T13:40:24;6.60;76.50
14397;DHT22;50653;47.810;13.022;2023-02-01T13:43:19;6.60;75.30
14397;DHT22;50653;47.810;13.022;2023-02-01T13:45:50;6.60;73.50
14397;DHT22;50653;47.810;13.022;2023-02-01T13:48:39;6.60;72.10
14397;DHT22;50653;47.810;13.022;2023-02-01T13:51:06;6.60;72.00
14397;DHT22;50653;47.810;13.022;2023-02-01T13:53:37;6.50;71.80
14397;DHT22;50653;47.810;13.022;2023-02-01T13:56:17;6.60;73.00
14397;DHT22;50653;47.810;13.022;2023-02-01T13:58:47;6.60;72.10
14397;DHT22;50653;47.810;13.022;2023-02-01T14:03:55;6.50;71.50
14397;DHT22;50653;47.810;13.022;2023-02-01T14:19:35;6.30;71.40
14397;DHT22;50653;47.810;13.022;2023-02-01T14:24:57;6.30;72.00
14397;DHT22;50653;47.810;13.022;2023-02-01T14:27:25;6.40;72.40
14397;DHT22;50653;47.810;13.022;2023-02-01T14:30:01;6.30;72.00
14397;DHT22;50653;47.810;13.022;2023-02-01T14:32:34;6.30;71.80
14397;DHT22;50653;47.810;13.022;2023-02-01T14:35:07;6.30;72.50
14397;DHT22;50653;47.810;13.022;2023-02-01T14:37:38;6.40;72.60
14397;DHT22;50653;47.810;13.022;2023-02-01T14:40:15;6.30;72.60
14397;DHT22;50653;47.810;13.022;2023-02-01T14:47:50;6.30;73.40
14397;DHT22;50653;47.810;13.022;2023-02-01T14:55:57;6.20;74.20
14397;DHT22;50653;47.810;13.022;2023-02-01T14:58:41;6.20;74.40
14397;DHT22;50653;47.810;13.022;2023-02-01T15:04:08;6.20;74.90
14397;DHT22;50653;47.810;13.022;2023-02-01T15:06:42;6.20;75.20
14397;DHT22;50653;47.810;13.022;2023-02-01T15:14:39;6.20;76.00
14397;DHT22;50653;47.810;13.022;2023-02-01T15:17:27;6.30;76.40
14397;DHT22;50653;47.810;13.022;2023-02-01T15:20:20;6.30;76.40
14397;DHT22;50653;47.810;13.022;2023-02-01T15:22:59;6.30;76.40
14397;DHT22;50653;47.810;13.022;2023-02-01T15:25:32;6.20;76.50
14397;DHT22;50653;47.810;13.022;2023-02-01T15:27:59;6.20;76.80
14397;DHT22;50653;47.810;13.022;2023-02-01T15:30:31;6.20;76.60
14397;DHT22;50653;47.810;13.022;2023-02-01T15:35:46;6.20;77.20
14397;DHT22;50653;47.810;13.022;2023-02-01T15:41:18;6.20;77.10
14397;DHT22;50653;47.810;13.022;2023-02-01T15:46:22;6.20;76.50
14397;DHT22;50653;47.810;13.022;2023-02-01T15:48:52;6.20;76.80
14397;DHT22;50653;47.810;13.022;2023-02-01T15:51:23;6.20;76.60
14397;DHT22;50653;47.810;13.022;2023-02-01T15:54:02;6.20;76.80
14397;DHT22;50653;47.810;13.022;2023-02-01T15:56:32;6.20;76.60
14397;DHT22;50653;47.810;13.022;2023-02-01T15:59:00;6.20;76.00
14397;DHT22;50653;47.810;13.022;2023-02-01T16:01:27;6.20;75.50
14397;DHT22;50653;47.810;13.022;2023-02-01T16:09:20;6.20;75.50
14397;DHT22;50653;47.810;13.022;2023-02-01T16:11:58;6.10;75.40
14397;DHT22;50653;47.810;13.022;2023-02-01T16:14:24;6.10;75.50
14397;DHT22;50653;47.810;13.022;2023-02-01T16:16:52;6.20;75.60
14397;DHT22;50653;47.810;13.022;2023-02-01T16:19:18;6.20;75.90
14397;DHT22;50653;47.810;13.022;2023-02-01T16:21:45;6.10;76.10
14397;DHT22;50653;47.810;13.022;2023-02-01T16:24:11;6.10;77.20
14397;DHT22;50653;47.810;13.022;2023-02-01T16:26:36;6.10;76.70
14397;DHT22;50653;47.810;13.022;2023-02-01T16:29:04;6.10;76.60
14397;DHT22;50653;47.810;13.022;2023-02-01T16:31:34;6.00;77.60
14397;DHT22;50653;47.810;13.022;2023-02-01T16:34:01;6.00;77.90
14397;DHT22;50653;47.810;13.022;2023-02-01T16:36:26;6.00;78.40
14397;DHT22;50653;47.810;13.022;2023-02-01T16:38:54;5.90;78.80
14397;DHT22;50653;47.810;13.022;2023-02-01T16:41:21;5.90;79.90
14397;DHT22;50653;47.810;13.022;2023-02-01T16:43:50;5.80;80.30
14397;DHT22;50653;47.810;13.022;2023-02-01T16:46:19;5.90;80.70
14397;DHT22;50653;47.810;13.022;2023-02-01T16:48:53;5.90;81.10
14397;DHT22;50653;47.810;13.022;2023-02-01T16:51:19;5.80;80.70
14397;DHT22;50653;47.810;13.022;2023-02-01T16:53:45;5.80;81.40
14397;DHT22;50653;47.810;13.022;2023-02-01T16:56:18;5.90;82.00
14397;DHT22;50653;47.810;13.022;2023-02-01T16:58:45;5.80;82.80
14397;DHT22;50653;47.810;13.022;2023-02-01T17:01:12;5.80;83.30
14397;DHT22;50653;47.810;13.022;2023-02-01T17:03:39;5.70;84.10
14397;DHT22;50653;47.810;13.022;2023-02-01T17:06:06;5.60;84.30
14397;DHT22;50653;47.810;13.022;2023-02-01T17:08:36;5.60;85.30
14397;DHT22;50653;47.810;13.022;2023-02-01T17:11:04;5.60;86.00
14397;DHT22;50653;47.810;13.022;2023-02-01T17:13:30;5.60;85.90
14397;DHT22;50653;47.810;13.022;2023-02-01T17:16:20;5.50;86.50
14397;DHT22;50653;47.810;13.022;2023-02-01T17:19:13;5.60;87.00
14397;DHT22;50653;47.810;13.022;2023-02-01T17:21:48;5.40;87.40
14397;DHT22;50653;47.810;13.022;2023-02-01T17:24:19;5.40;89.60
14397;DHT22;50653;47.810;13.022;2023-02-01T17:26:45;5.30;90.20
14397;DHT22;50653;47.810;13.022;2023-02-01T17:29:11;5.30;91.00
14397;DHT22;50653;47.810;13.022;2023-02-01T17:31:43;5.40;92.30
14397;DHT22;50653;47.810;13.022;2023-02-01T17:34:10;5.40;91.60
14397;DHT22;50653;47.810;13.022;2023-02-01T17:36:36;5.40;91.90
14397;DHT22;50653;47.810;13.022;2023-02-01T17:39:04;5.30;92.00
14397;DHT22;50653;47.810;13.022;2023-02-01T17:41:29;5.40;91.50
14397;DHT22;50653;47.810;13.022;2023-02-01T17:43:55;5.40;91.00
14397;DHT22;50653;47.810;13.022;2023-02-01T17:46:21;5.40;91.10
14397;DHT22;50653;47.810;13.022;2023-02-01T17:48:52;5.40;90.80
14397;DHT22;50653;47.810;13.022;2023-02-01T17:51:21;5.40;90.10
14397;DHT22;50653;47.810;13.022;2023-02-01T17:53:47;5.40;89.50
14397;DHT22;50653;47.810;13.022;2023-02-01T17:56:15;5.40;86.30
14397;DHT22;50653;47.810;13.022;2023-02-01T17:58:42;5.50;85.30
14397;DHT22;50653;47.810;13.022;2023-02-01T18:01:17;5.50;83.70
14397;DHT22;50653;47.810;13.022;2023-02-01T18:03:43;5.60;82.40
14397;DHT22;50653;47.810;13.022;2023-02-01T18:06:16;5.60;82.10
14397;DHT22;50653;47.810;13.022;2023-02-01T18:08:42;5.60;81.90
14397;DHT22;50653;47.810;13.022;2023-02-01T18:11:17;5.60;81.50
14397;DHT22;50653;47.810;13.022;2023-02-01T18:13:43;5.70;80.80